Time;durP1;ratioP1;P1;durP2;ratioP2;P2;SDS_P1;SDS_P2;PMS_P1;PMS_P2;Temp;Humidity;BMP_temperature;BMP_pressure;BME280_temperature;BME280_humidity;BME280_pressure;Samples;Min_cycle;Max_cycle;Signal;HPM_P1;HPM_P2
2022/07/18 00:02:16;;;;;;;7.32;5.47;;;;;;;17.45;87.91;102490.63;5023259;28;20029;-77
2022/07/18 00:04:41;;;;;;;7.40;5.32;;;;;;;17.42;88.19;102479.19;5007528;28;20387;-77
2022/07/18 00:07:07;;;;;;;7.05;4.65;;;;;;;17.37;88.03;102488.28;5023045;28;20032;-78
2022/07/18 00:09:33;;;;;;;8.68;5.35;;;;;;;17.35;88.17;102479.47;5022887;28;20094;-77
2022/07/18 00:11:58;;;;;;;7.88;5.13;;;;;;;17.33;88.53;102477.81;5022809;28;20025;-77
2022/07/18 00:14:24;;;;;;;8.80;5.15;;;;;;;17.31;88.88;102477.00;5022929;28;20532;-77
2022/07/18 00:16:50;;;;;;;7.13;5.43;;;;;;;17.28;88.86;102471.81;5004784;28;20033;-77
2022/07/18 00:19:16;;;;;;;7.68;4.68;;;;;;;17.24;88.98;102473.78;5022874;28;20705;-77
2022/07/18 00:21:42;;;;;;;7.72;5.30;;;;;;;17.21;89.41;102472.09;5006880;28;20121;-77
2022/07/18 00:24:07;;;;;;;7.70;5.22;;;;;;;17.19;89.64;102460.63;5004828;28;20040;-77
2022/07/18 00:26:38;;;;;;;7.35;5.10;;;;;;;17.18;89.83;102469.59;5022656;28;20037;-77
2022/07/18 00:29:03;;;;;;;6.93;4.97;;;;;;;17.16;89.88;102468.78;5004587;28;20036;-77
2022/07/18 00:31:29;;;;;;;7.20;4.80;;;;;;;17.14;89.85;102470.66;5022291;28;21401;-77
2022/07/18 00:33:54;;;;;;;8.27;4.78;;;;;;;17.06;89.75;102452.28;5022636;28;20090;-77
2022/07/18 00:36:20;;;;;;;9.18;5.03;;;;;;;17.03;89.80;102459.59;5022519;28;20681;-77
2022/07/18 00:38:45;;;;;;;9.43;5.40;;;;;;;16.97;90.56;102453.59;5022236;28;20025;-77
2022/07/18 00:41:15;;;;;;;7.10;5.15;;;;;;;16.96;91.33;102446.47;5023070;28;20049;-77
2022/07/18 00:43:40;;;;;;;10.27;5.05;;;;;;;16.93;91.57;102451.97;5022396;28;20053;-77
2022/07/18 00:46:06;;;;;;;7.97;5.07;;;;;;;16.93;92.12;102454.66;5020960;28;20155;-76
2022/07/18 00:48:32;;;;;;;8.30;5.65;;;;;;;16.94;92.01;102456.38;5022300;28;20480;-76
2022/07/18 00:50:57;;;;;;;8.18;5.20;;;;;;;16.90;91.51;102453.94;5022091;28;20064;-76
2022/07/18 00:53:23;;;;;;;8.77;5.20;;;;;;;16.86;91.22;102450.53;5002830;28;20088;-76
2022/07/18 00:55:49;;;;;;;7.60;5.05;;;;;;;16.84;91.37;102447.06;5022165;28;20048;-76
2022/07/18 00:58:15;;;;;;;8.00;4.93;;;;;;;16.81;91.65;102442.72;5021855;28;20033;-76
2022/07/18 01:03:25;;;;;;;10.30;5.38;;;;;;;16.78;91.65;102436.66;5021931;28;20049;-76
2022/07/18 01:05:51;;;;;;;6.97;5.13;;;;;;;16.75;91.55;102442.13;4997962;28;20466;-76
2022/07/18 01:08:17;;;;;;;6.88;4.82;;;;;;;16.69;91.53;102438.81;5003451;28;20021;-76
2022/07/18 01:10:43;;;;;;;8.05;5.10;;;;;;;16.66;91.60;102430.94;5004153;28;20053;-76
2022/07/18 01:13:08;;;;;;;7.65;4.90;;;;;;;16.65;91.80;102431.00;5021841;28;20464;-75
2022/07/18 01:15:34;;;;;;;6.95;4.93;;;;;;;16.63;91.98;102438.22;5021654;28;20037;-77
2022/07/18 01:18:00;;;;;;;8.95;4.97;;;;;;;16.61;92.58;102451.66;5021529;28;20680;-78
2022/07/18 01:20:29;;;;;;;10.30;5.50;;;;;;;16.58;92.73;102451.81;5021830;28;20072;-78
2022/07/18 01:22:54;;;;;;;7.82;5.07;;;;;;;16.54;92.48;102440.38;5021362;28;20484;-76
2022/07/18 01:25:20;;;;;;;7.03;4.57;;;;;;;16.51;92.24;102445.00;5021643;28;20040;-78
2022/07/18 01:27:45;;;;;;;8.18;4.95;;;;;;;16.49;92.27;102438.84;5022205;28;20072;-76
2022/07/18 01:30:11;;;;;;;7.47;5.20;;;;;;;16.49;92.20;102433.50;4988824;28;20450;-76
2022/07/18 01:32:36;;;;;;;8.05;5.25;;;;;;;16.50;92.05;102432.59;4989854;28;20057;-76
2022/07/18 01:35:03;;;;;;;11.93;5.65;;;;;;;16.50;92.17;102435.25;5006321;28;20025;-77
2022/07/18 01:37:28;;;;;;;8.02;4.82;;;;;;;16.47;91.75;102441.59;5021177;28;20031;-78
2022/07/18 01:39:53;;;;;;;7.68;4.80;;;;;;;16.41;91.44;102440.06;5021295;28;20475;-77
2022/07/18 01:42:19;;;;;;;8.50;5.25;;;;;;;16.39;91.24;102430.38;4985905;28;20041;-77
2022/07/18 01:44:45;;;;;;;6.72;4.88;;;;;;;16.37;90.90;102438.47;5021479;28;20025;-78
2022/07/18 01:47:11;;;;;;;8.85;4.70;;;;;;;16.35;90.98;102432.31;5020998;28;20041;-78
2022/07/18 01:49:37;;;;;;;8.80;5.50;;;;;;;16.31;90.90;102425.38;5021057;28;20025;-77
2022/07/18 01:52:03;;;;;;;7.25;5.07;;;;;;;16.25;90.91;102423.84;5020822;28;20033;-77
2022/07/18 01:54:31;;;;;;;6.97;5.05;;;;;;;16.20;91.04;102419.66;5021120;28;20151;-77
2022/07/18 01:56:57;;;;;;;8.15;4.63;;;;;;;16.17;90.95;102411.78;4989175;28;20033;-77
2022/07/18 01:59:23;;;;;;;8.95;5.13;;;;;;;16.13;91.05;102416.41;5020936;28;20045;-77
2022/07/18 02:01:48;;;;;;;9.57;6.00;;;;;;;16.11;91.92;102421.78;4989731;28;20583;-77
2022/07/18 02:04:14;;;;;;;8.82;5.15;;;;;;;16.09;91.61;102417.44;5020814;28;20036;-77
2022/07/18 02:06:40;;;;;;;10.18;5.38;;;;;;;16.06;91.86;102414.94;5020455;28;20114;-77
2022/07/18 02:09:09;;;;;;;8.43;5.18;;;;;;;16.03;91.49;102418.59;4988436;28;20030;-77
2022/07/18 02:11:38;;;;;;;8.93;4.88;;;;;;;15.99;91.22;102416.97;4988623;28;21299;-77
2022/07/18 02:14:04;;;;;;;7.20;4.82;;;;;;;15.98;91.40;102415.25;5020413;28;20111;-78
2022/07/18 02:16:30;;;;;;;8.20;4.90;;;;;;;15.96;90.91;102411.78;4987851;28;20035;-77
2022/07/18 02:18:56;;;;;;;6.32;4.05;;;;;;;15.94;91.07;102409.19;5017958;28;20116;-77
2022/07/18 02:21:22;;;;;;;7.50;4.68;;;;;;;15.95;91.24;102415.41;4988338;28;20079;-77
2022/07/18 02:23:47;;;;;;;6.93;4.78;;;;;;;15.92;91.07;102404.84;5002675;28;20484;-77
2022/07/18 02:26:13;;;;;;;7.00;4.95;;;;;;;15.89;91.33;102406.69;5020358;28;20068;-77
2022/07/18 02:28:39;;;;;;;8.68;4.55;;;;;;;15.86;90.86;102393.44;5002481;28;20029;-79
2022/07/18 02:31:05;;;;;;;8.25;5.18;;;;;;;15.82;91.05;102399.88;5004856;28;20048;-79
2022/07/18 02:33:31;;;;;;;7.80;5.10;;;;;;;15.80;91.17;102396.38;5002775;28;20044;-78
2022/07/18 02:35:56;;;;;;;9.32;4.78;;;;;;;15.79;91.09;102405.31;5020585;28;20440;-78
2022/07/18 02:38:22;;;;;;;7.82;4.55;;;;;;;15.77;91.34;102406.31;5020861;28;20112;-78
2022/07/18 02:40:47;;;;;;;6.60;4.85;;;;;;;15.72;91.21;102404.75;4986587;28;20482;-78
2022/07/18 02:43:13;;;;;;;8.02;4.93;;;;;;;15.72;91.13;102404.75;5002883;28;20029;-77
2022/07/18 02:45:38;;;;;;;7.75;5.05;;;;;;;15.73;91.38;102394.91;5018299;28;20364;-77
2022/07/18 02:48:04;;;;;;;6.30;4.32;;;;;;;15.74;91.51;102401.97;5018809;28;20029;-77
2022/07/18 02:50:30;;;;;;;8.07;4.97;;;;;;;15.74;91.15;102404.66;5020460;28;20130;-77
2022/07/18 02:52:56;;;;;;;9.52;4.75;;;;;;;15.73;91.16;102406.47;5018351;28;20344;-77
2022/07/18 02:55:22;;;;;;;7.28;4.85;;;;;;;15.73;90.76;102397.56;5019922;28;20045;-76
2022/07/18 02:57:48;;;;;;;6.68;4.30;;;;;;;15.70;90.65;102393.22;4987589;28;20029;-77
2022/07/18 03:00:14;;;;;;;6.97;4.70;;;;;;;15.70;90.43;102397.72;5020637;28;20064;-77
2022/07/18 03:02:41;;;;;;;7.68;4.53;;;;;;;15.69;90.27;102399.50;5020234;28;20436;-76
2022/07/18 03:05:07;;;;;;;5.80;4.25;;;;;;;15.70;90.13;102389.72;5002838;28;20160;-77
2022/07/18 03:07:33;;;;;;;9.02;5.20;;;;;;;15.69;90.05;102391.50;5002138;28;20048;-77
2022/07/18 03:09:58;;;;;;;7.65;4.68;;;;;;;15.66;90.08;102380.97;5020195;28;20116;-77
2022/07/18 03:12:23;;;;;;;7.18;4.35;;;;;;;15.65;89.91;102381.03;5004286;28;20040;-76
2022/07/18 03:14:49;;;;;;;7.28;4.45;;;;;;;15.64;89.63;102373.94;4987524;28;20388;-77
2022/07/18 03:17:15;;;;;;;6.35;4.45;;;;;;;15.60;89.03;102374.06;5004502;28;20037;-77
2022/07/18 03:19:41;;;;;;;6.57;4.20;;;;;;;15.59;88.70;102372.34;5002339;28;20033;-78
2022/07/18 03:22:06;;;;;;;5.03;3.72;;;;;;;15.58;88.50;102370.59;4980076;28;20040;-77
2022/07/18 03:24:32;;;;;;;7.05;4.22;;;;;;;15.55;88.19;102365.41;5018347;28;20486;-77
2022/07/18 03:26:58;;;;;;;7.80;4.43;;;;;;;15.54;88.20;102358.34;5017568;28;20029;-78
2022/07/18 03:29:23;;;;;;;9.13;4.57;;;;;;;15.51;87.96;102352.28;5020055;28;20510;-77
2022/07/18 03:31:49;;;;;;;7.63;4.40;;;;;;;15.49;88.03;102360.34;5023465;28;20030;-76
2022/07/18 03:34:14;;;;;;;6.70;4.07;;;;;;;15.46;88.22;102355.09;5023873;28;21504;-77
2022/07/18 03:36:40;;;;;;;7.50;4.53;;;;;;;15.44;87.99;102346.31;4975384;28;20485;-77
2022/07/18 03:39:10;;;;;;;6.25;4.15;;;;;;;15.42;88.15;102349.03;5024194;28;20037;-77
2022/07/18 03:41:38;;;;;;;8.13;4.32;;;;;;;15.41;88.48;102347.31;4979140;28;20550;-78
2022/07/18 03:44:05;;;;;;;7.05;4.50;;;;;;;15.40;88.24;102347.34;5023993;28;20048;-78
2022/07/18 03:46:31;;;;;;;6.80;4.22;;;;;;;15.39;88.35;102340.28;5022984;28;20029;-78
2022/07/18 03:48:57;;;;;;;6.40;4.20;;;;;;;15.37;88.27;102340.38;5023466;28;20060;-78
2022/07/18 03:51:22;;;;;;;7.60;4.47;;;;;;;15.35;88.18;102336.88;5005309;28;20476;-78
2022/07/18 03:53:48;;;;;;;7.35;4.60;;;;;;;15.34;88.45;102337.81;5005282;28;20491;-78
2022/07/18 03:56:14;;;;;;;6.18;4.55;;;;;;;15.33;88.76;102334.31;5005657;28;20129;-78
2022/07/18 03:58:39;;;;;;;7.28;4.45;;;;;;;15.35;89.03;102318.22;5006915;28;20038;-78
2022/07/18 04:01:04;;;;;;;9.43;4.57;;;;;;;15.34;89.10;102306.69;5023360;28;20034;-78
2022/07/18 04:03:30;;;;;;;6.97;4.30;;;;;;;15.34;89.39;102312.03;5023075;28;20089;-78
2022/07/18 04:05:55;;;;;;;7.53;4.15;;;;;;;15.37;89.56;102324.38;5005364;28;20123;-78
2022/07/18 04:08:21;;;;;;;6.97;4.45;;;;;;;15.37;89.68;102323.47;5023250;28;20064;-78
2022/07/18 04:10:47;;;;;;;6.95;4.43;;;;;;;15.39;89.98;102318.94;5023413;28;20385;-77
2022/07/18 04:13:12;;;;;;;7.95;4.07;;;;;;;15.40;89.89;102326.00;5021793;28;20036;-77
2022/07/18 04:15:38;;;;;;;8.18;4.28;;;;;;;15.40;90.16;102328.69;5021454;28;20031;-77
2022/07/18 04:18:07;;;;;;;7.13;4.00;;;;;;;15.40;89.82;102336.69;4990937;28;20145;-77
2022/07/18 04:20:34;;;;;;;7.00;4.13;;;;;;;15.42;89.85;102337.50;5005249;28;20033;-77
2022/07/18 04:23:02;;;;;;;6.47;4.50;;;;;;;15.42;89.56;102332.16;5021278;28;20048;-78
2022/07/18 04:25:33;;;;;;;7.53;4.43;;;;;;;15.43;89.31;102336.56;4988485;28;20520;-77
2022/07/18 04:27:59;;;;;;;6.78;4.22;;;;;;;15.44;88.65;102336.50;5004552;28;20068;-77
2022/07/18 04:30:26;;;;;;;8.43;4.63;;;;;;;15.46;88.74;102342.66;5005049;28;20234;-78
2022/07/18 04:32:52;;;;;;;6.85;4.13;;;;;;;15.48;88.72;102338.09;5022304;28;20090;-78
2022/07/18 04:35:17;;;;;;;6.47;4.30;;;;;;;15.50;88.38;102330.03;5004722;28;20036;-77
2022/07/18 04:37:43;;;;;;;8.52;4.43;;;;;;;15.51;88.51;102337.09;5022544;28;20029;-78
2022/07/18 04:40:10;;;;;;;8.18;4.95;;;;;;;15.52;88.23;102333.50;4990135;28;20420;-78
2022/07/18 04:42:36;;;;;;;6.80;4.28;;;;;;;15.52;88.27;102338.84;5021594;28;20029;-78
2022/07/18 04:45:02;;;;;;;7.45;4.07;;;;;;;15.52;88.51;102330.81;5004919;28;20480;-78
2022/07/18 04:47:28;;;;;;;6.40;4.40;;;;;;;15.53;88.44;102329.88;4989901;28;20087;-78
2022/07/18 04:49:54;;;;;;;8.77;4.45;;;;;;;15.56;88.42;102323.56;4989551;28;21868;-78
2022/07/18 04:52:20;;;;;;;5.38;3.97;;;;;;;15.59;88.26;102318.94;5021922;28;20048;-78
2022/07/18 04:54:46;;;;;;;7.20;4.00;;;;;;;15.63;88.28;102317.00;5022315;28;20030;-78
2022/07/18 04:57:14;;;;;;;6.57;4.13;;;;;;;15.67;88.00;102315.06;5021740;28;20060;-78
2022/07/18 04:59:43;;;;;;;7.68;4.38;;;;;;;15.71;87.95;102312.22;5022455;28;20112;-78
2022/07/18 05:02:09;;;;;;;6.88;4.30;;;;;;;15.74;87.81;102305.88;5021900;28;20116;-78
2022/07/18 05:04:35;;;;;;;6.95;4.45;;;;;;;15.79;87.55;102311.88;5021673;28;20071;-78
2022/07/18 05:07:03;;;;;;;6.75;4.47;;;;;;;15.84;87.46;102299.19;5021874;28;20039;-78
2022/07/18 05:09:29;;;;;;;6.00;3.72;;;;;;;15.87;87.56;102304.38;5003814;28;20029;-78
2022/07/18 05:11:55;;;;;;;6.95;3.88;;;;;;;15.90;87.32;102300.72;5021591;28;20040;-78
2022/07/18 05:14:20;;;;;;;6.68;3.80;;;;;;;15.93;87.07;102302.41;5005854;28;20081;-78
2022/07/18 05:16:46;;;;;;;6.28;3.90;;;;;;;15.95;87.08;102295.22;5003511;28;20166;-78
2022/07/18 05:19:12;;;;;;;7.65;3.70;;;;;;;15.97;87.00;102296.84;5021678;28;20037;-78
2022/07/18 05:21:38;;;;;;;5.72;3.45;;;;;;;16.02;86.71;102294.84;5021961;28;20121;-77
2022/07/18 05:24:04;;;;;;;6.93;3.80;;;;;;;16.05;86.79;102299.19;5021663;28;20024;-77
2022/07/18 05:26:29;;;;;;;6.32;3.55;;;;;;;16.09;86.52;102306.13;5021415;28;20029;-78
2022/07/18 05:28:55;;;;;;;5.57;3.53;;;;;;;16.12;86.36;102297.97;5003682;28;20029;-77
2022/07/18 05:31:20;;;;;;;6.45;3.50;;;;;;;16.14;86.08;102288.06;5021353;28;20029;-77
2022/07/18 05:33:45;;;;;;;6.70;3.65;;;;;;;16.19;85.74;102292.34;5021549;28;20047;-78
2022/07/18 05:36:11;;;;;;;6.82;3.25;;;;;;;16.21;85.66;102283.31;5021481;28;20436;-78
2022/07/18 05:38:36;;;;;;;6.57;3.17;;;;;;;16.25;85.37;102287.56;5021330;28;20673;-78
2022/07/18 05:41:02;;;;;;;4.55;3.00;;;;;;;16.33;85.09;102291.72;5003401;28;20424;-78
2022/07/18 05:43:27;;;;;;;4.53;2.97;;;;;;;16.39;84.80;102286.06;5021043;28;20033;-78
2022/07/18 05:45:53;;;;;;;5.25;3.03;;;;;;;16.44;84.69;102286.72;5021339;28;20049;-78
2022/07/18 05:48:18;;;;;;;4.55;2.90;;;;;;;16.51;84.35;102281.94;5020892;28;20486;-78
2022/07/18 05:50:44;;;;;;;6.40;3.08;;;;;;;16.56;84.15;102283.44;5021000;28;20237;-78
2022/07/18 05:53:11;;;;;;;6.75;2.80;;;;;;;16.63;83.89;102300.09;4999055;28;20037;-78
2022/07/18 05:55:37;;;;;;;5.10;3.17;;;;;;;16.69;83.84;102302.44;5000845;28;20065;-78
2022/07/18 05:58:02;;;;;;;4.60;3.08;;;;;;;16.76;83.44;102304.81;5001352;28;20117;-76
2022/07/18 06:00:28;;;;;;;4.20;2.90;;;;;;;16.84;83.32;102294.63;5001486;28;20397;-77
2022/07/18 06:02:53;;;;;;;4.75;2.80;;;;;;;16.90;82.77;102290.78;5001424;28;20042;-78
2022/07/18 06:05:18;;;;;;;4.47;2.75;;;;;;;16.98;82.33;102288.56;5001577;28;20049;-77
2022/07/18 06:07:44;;;;;;;5.10;2.65;;;;;;;17.05;82.09;102290.03;5001422;28;20369;-78
2022/07/18 06:10:10;;;;;;;6.70;3.08;;;;;;;17.13;81.67;102295.00;5001492;28;20522;-77
2022/07/18 06:12:38;;;;;;;5.95;2.90;;;;;;;17.20;81.32;102296.44;5001444;28;20540;-77
2022/07/18 06:15:04;;;;;;;6.40;3.20;;;;;;;17.28;80.79;102305.88;5001596;28;20037;-78
2022/07/18 06:17:29;;;;;;;5.80;3.35;;;;;;;17.35;80.46;102304.63;5000947;28;20037;-77
2022/07/18 06:19:55;;;;;;;5.15;3.17;;;;;;;17.44;79.76;102301.47;5000716;28;20036;-77
2022/07/18 06:22:24;;;;;;;5.00;3.08;;;;;;;17.54;79.92;102301.84;5000989;28;20124;-77
2022/07/18 06:24:50;;;;;;;6.50;3.45;;;;;;;17.63;79.82;102305.88;4999341;28;20041;-77
2022/07/18 06:27:15;;;;;;;6.38;3.05;;;;;;;17.70;79.90;102304.59;5000751;28;20038;-76
2022/07/18 06:29:40;;;;;;;7.20;3.78;;;;;;;17.80;79.76;102315.69;4967857;28;20092;-76
2022/07/18 06:32:06;;;;;;;5.80;3.00;;;;;;;17.90;79.61;102313.38;4999383;28;20345;-77
2022/07/18 06:34:31;;;;;;;7.00;3.50;;;;;;;17.97;79.57;102306.75;4984706;28;20033;-76
2022/07/18 06:36:57;;;;;;;6.05;3.50;;;;;;;18.04;79.62;102308.16;5000654;28;20398;-77
2022/07/18 06:39:22;;;;;;;7.32;3.53;;;;;;;18.16;79.65;102298.63;5000422;28;20061;-77
2022/07/18 06:41:48;;;;;;;8.23;3.70;;;;;;;18.33;79.90;102294.13;4984668;28;20092;-77
2022/07/18 06:44:14;;;;;;;6.22;3.42;;;;;;;18.56;79.69;102291.97;5000991;28;20668;-76
2022/07/18 06:46:39;;;;;;;4.95;3.42;;;;;;;18.80;79.50;102303.13;5000903;28;20057;-77
2022/07/18 06:49:06;;;;;;;5.00;2.75;;;;;;;19.06;78.59;102291.88;5000500;28;20475;-76
2022/07/18 06:51:32;;;;;;;5.15;3.22;;;;;;;19.24;77.71;102290.75;5000837;28;20095;-76
2022/07/18 06:53:57;;;;;;;4.65;2.90;;;;;;;19.37;76.68;102293.59;4996928;28;20564;-75
2022/07/18 06:56:23;;;;;;;3.65;2.75;;;;;;;19.51;75.87;102294.59;5000864;28;20038;-77
2022/07/18 06:58:50;;;;;;;5.13;2.70;;;;;;;19.60;74.92;102291.31;4999213;28;20038;-78
2022/07/18 07:01:16;;;;;;;5.03;3.10;;;;;;;19.67;73.60;102306.09;4983145;28;20034;-76
2022/07/18 07:03:42;;;;;;;4.05;2.78;;;;;;;19.76;74.13;102302.00;4985006;28;20381;-77
2022/07/18 07:06:07;;;;;;;4.05;2.72;;;;;;;19.85;73.50;102303.25;5003568;28;20029;-76
2022/07/18 07:08:33;;;;;;;5.60;3.00;;;;;;;19.91;73.31;102297.50;5004869;28;20116;-77
2022/07/18 07:10:59;;;;;;;4.05;2.72;;;;;;;19.94;72.53;102293.75;5004045;28;20042;-77
2022/07/18 07:13:24;;;;;;;6.10;2.33;;;;;;;19.98;72.72;102297.16;5004629;28;20018;-76
2022/07/18 07:15:50;;;;;;;3.35;2.40;;;;;;;20.01;72.45;102294.25;4988093;28;21337;-76
2022/07/18 07:18:15;;;;;;;6.07;2.80;;;;;;;20.04;72.38;102299.47;5004442;28;20528;-76
2022/07/18 07:20:40;;;;;;;4.82;3.00;;;;;;;20.10;72.39;102292.81;5004243;28;20471;-75
2022/07/18 07:23:07;;;;;;;4.75;3.60;;;;;;;20.18;72.27;102288.69;5004560;28;20472;-76
2022/07/18 07:25:33;;;;;;;4.30;2.85;;;;;;;20.29;71.97;102295.19;4988152;28;20048;-76
2022/07/18 07:27:59;;;;;;;4.93;2.88;;;;;;;20.47;72.26;102293.13;4981163;28;20026;-77
2022/07/18 07:30:24;;;;;;;3.97;2.72;;;;;;;20.63;72.19;102295.69;5004985;28;20392;-75
2022/07/18 07:32:51;;;;;;;3.95;2.42;;;;;;;20.82;71.52;102294.47;5002600;28;20131;-75
2022/07/18 07:35:17;;;;;;;5.00;2.45;;;;;;;21.11;71.44;102294.38;5003981;28;20504;-75
2022/07/18 07:37:49;;;;;;;3.55;2.25;;;;;;;21.42;70.07;102293.13;5004075;28;20061;-74
2022/07/18 07:40:15;;;;;;;5.70;2.47;;;;;;;21.68;69.79;102295.00;4988287;28;20116;-75
2022/07/18 07:42:41;;;;;;;3.72;2.28;;;;;;;21.85;69.27;102293.84;5003948;28;20041;-76
2022/07/18 07:45:07;;;;;;;5.13;2.13;;;;;;;22.01;69.12;102287.34;5002619;28;20121;-75
2022/07/18 07:47:34;;;;;;;4.25;2.08;;;;;;;22.21;68.17;102280.50;5003457;28;20043;-75
2022/07/18 07:49:59;;;;;;;3.55;2.17;;;;;;;22.47;67.88;102284.00;5003837;28;20034;-76
2022/07/18 07:52:25;;;;;;;6.15;2.10;;;;;;;22.76;67.47;102269.31;5003785;28;20123;-77
2022/07/18 07:54:51;;;;;;;4.15;1.90;;;;;;;23.06;66.62;102276.09;5000440;28;20050;-76
2022/07/18 07:57:16;;;;;;;2.22;1.70;;;;;;;23.39;66.23;102277.19;5002472;28;20389;-76
2022/07/18 07:59:42;;;;;;;2.90;1.67;;;;;;;23.66;64.74;102270.59;4985511;28;20046;-77
2022/07/18 08:02:07;;;;;;;3.10;1.65;;;;;;;23.89;62.97;102270.59;5003527;28;20488;-76
2022/07/18 08:04:33;;;;;;;2.28;1.67;;;;;;;24.12;62.94;102255.25;5003464;28;20386;-79
2022/07/18 08:06:58;;;;;;;4.35;1.60;;;;;;;24.28;61.63;102260.25;4970811;28;20049;-76
2022/07/18 08:09:24;;;;;;;2.45;1.58;;;;;;;24.41;60.61;102260.09;5003493;28;20137;-77
2022/07/18 08:11:49;;;;;;;1.88;1.35;;;;;;;24.61;60.53;102264.84;5002983;28;20554;-77
2022/07/18 08:14:15;;;;;;;1.40;1.20;;;;;;;24.87;59.90;102281.63;5003329;28;20558;-77
2022/07/18 08:16:40;;;;;;;1.60;1.15;;;;;;;25.09;59.60;102280.69;5002482;28;20022;-78
2022/07/18 08:19:06;;;;;;;1.48;1.10;;;;;;;25.28;57.70;102273.66;5003269;28;20049;-77
2022/07/18 08:21:31;;;;;;;2.92;1.25;;;;;;;25.53;57.46;102266.13;5003279;28;20388;-77
2022/07/18 08:23:57;;;;;;;2.55;1.13;;;;;;;25.71;57.36;102268.22;5002888;28;20112;-77
2022/07/18 08:26:23;;;;;;;1.42;1.13;;;;;;;25.85;55.51;102267.84;5003187;28;20120;-77
2022/07/18 08:28:49;;;;;;;1.60;1.20;;;;;;;25.92;53.96;102270.88;5003213;28;20630;-77
2022/07/18 08:31:14;;;;;;;3.17;1.23;;;;;;;25.85;55.03;102262.44;5002988;28;20045;-78
2022/07/18 08:33:40;;;;;;;1.42;1.00;;;;;;;25.83;54.09;102269.84;5001417;28;20088;-77
2022/07/18 08:36:08;;;;;;;1.98;1.00;;;;;;;25.87;53.53;102259.59;5000056;28;20585;-77
2022/07/18 08:38:33;;;;;;;1.88;1.27;;;;;;;25.92;53.49;102256.47;5002609;28;21330;-77
2022/07/18 08:41:00;;;;;;;3.67;1.40;;;;;;;26.03;53.50;102257.22;5002442;28;20029;-75
2022/07/18 08:43:26;;;;;;;2.17;1.20;;;;;;;26.22;53.48;102261.00;5001408;28;20400;-77
2022/07/18 08:45:56;;;;;;;1.40;1.13;;;;;;;26.32;52.99;102258.31;5002308;28;20034;-77
2022/07/18 08:48:22;;;;;;;1.63;1.10;;;;;;;26.48;52.75;102248.75;5002892;28;20092;-76
2022/07/18 08:50:48;;;;;;;2.47;0.93;;;;;;;26.63;52.76;102241.91;5002673;28;20382;-77
2022/07/18 08:53:15;;;;;;;2.00;1.10;;;;;;;26.85;52.60;102240.75;5008725;28;20051;-77
2022/07/18 08:55:41;;;;;;;1.10;0.98;;;;;;;27.01;52.48;102238.50;4973301;28;20248;-78
2022/07/18 08:58:06;;;;;;;2.20;1.25;;;;;;;27.11;52.20;102244.75;5020616;28;20176;-78
2022/07/18 09:00:34;;;;;;;2.35;1.20;;;;;;;27.14;51.79;102246.31;4991312;28;20057;-78
2022/07/18 09:03:01;;;;;;;2.05;1.20;;;;;;;27.14;49.47;102230.88;5005593;28;20032;-78
2022/07/18 09:05:27;;;;;;;2.25;1.15;;;;;;;27.11;51.22;102231.16;5004219;28;20076;-76
2022/07/18 09:08:13;;;;;;;2.47;1.20;;;;;;;27.22;47.59;102232.84;5006687;28;20064;-77
2022/07/18 09:10:51;;;;;;;3.17;1.27;;;;;;;27.34;48.46;102239.00;5021702;28;20771;-77
2022/07/18 09:13:17;;;;;;;2.45;1.20;;;;;;;27.37;48.98;102235.97;5003634;28;20037;-76
2022/07/18 09:16:09;;;;;;;1.58;1.20;;;;;;;27.32;43.93;102233.69;5004266;28;20032;-76
2022/07/18 09:18:46;;;;;;;1.75;1.20;;;;;;;27.35;48.10;102236.09;4987807;28;20021;-76
2022/07/18 09:21:18;;;;;;;2.88;1.13;;;;;;;27.43;48.34;102232.66;5003992;28;20362;-77
2022/07/18 09:23:51;;;;;;;2.08;1.17;;;;;;;27.50;48.39;102236.50;5021816;28;20058;-75
2022/07/18 09:26:39;;;;;;;1.65;1.20;;;;;;;27.58;44.90;102238.50;5006365;28;20575;-77
2022/07/18 09:29:08;;;;;;;3.25;1.15;;;;;;;27.70;48.12;102233.72;5021542;28;20393;-76
2022/07/18 09:31:34;;;;;;;1.75;1.20;;;;;;;27.75;47.93;102230.56;4989746;28;20061;-77
2022/07/18 09:34:01;;;;;;;2.78;1.13;;;;;;;27.78;47.89;102236.56;5003950;28;20638;-76
2022/07/18 09:36:28;;;;;;;1.83;1.15;;;;;;;27.87;47.52;102240.25;5021690;28;20065;-76
2022/07/18 09:38:54;;;;;;;2.92;1.10;;;;;;;27.94;46.84;102245.91;5021194;28;20439;-76
2022/07/18 09:41:27;;;;;;;1.70;1.02;;;;;;;27.90;42.58;102242.63;4997728;28;20468;-77
2022/07/18 09:43:53;;;;;;;3.95;0.90;;;;;;;27.87;45.21;102239.38;5003716;28;20044;-77
2022/07/18 09:46:18;;;;;;;1.73;1.48;;;;;;;27.86;43.87;102238.53;5021416;28;20598;-77
2022/07/18 09:48:44;;;;;;;2.15;1.20;;;;;;;27.88;43.24;102230.22;5021378;28;20137;-77
2022/07/18 09:51:10;;;;;;;1.45;1.00;;;;;;;27.91;44.01;102235.34;4986287;28;20048;-76
2022/07/18 09:53:41;;;;;;;1.25;1.05;;;;;;;27.98;44.13;102232.84;5020490;28;20044;-76
2022/07/18 09:56:14;;;;;;;3.10;1.10;;;;;;;28.06;42.84;102239.25;5021505;28;20260;-76
2022/07/18 09:58:42;;;;;;;2.17;1.20;;;;;;;28.16;44.53;102236.47;4989263;28;20067;-76
2022/07/18 10:01:09;;;;;;;3.08;1.10;;;;;;;28.11;42.38;102246.13;5002861;28;20052;-77
2022/07/18 10:03:39;;;;;;;3.38;1.20;;;;;;;27.92;41.89;102232.47;5005602;28;20428;-76
2022/07/18 10:06:04;;;;;;;1.92;1.05;;;;;;;27.83;41.61;102240.69;5002881;28;20098;-77
2022/07/18 10:08:32;;;;;;;1.42;1.00;;;;;;;27.76;43.06;102237.72;5002686;28;20045;-77
2022/07/18 10:11:01;;;;;;;1.40;0.80;;;;;;;27.82;43.43;102230.81;5021003;28;20033;-77
2022/07/18 10:13:28;;;;;;;3.25;1.25;;;;;;;27.86;41.93;102234.94;4989175;28;20116;-76
2022/07/18 10:15:54;;;;;;;1.83;1.10;;;;;;;27.84;42.12;102234.25;5018910;28;20400;-79
2022/07/18 10:18:21;;;;;;;1.30;1.20;;;;;;;27.80;41.05;102233.69;5020875;28;20031;-78
2022/07/18 10:21:06;;;;;;;2.85;1.33;;;;;;;27.84;40.07;102234.25;5020835;28;20029;-79
2022/07/18 10:23:39;;;;;;;1.48;1.27;;;;;;;27.77;39.17;102237.56;5002859;28;20488;-78
2022/07/18 10:26:14;;;;;;;1.30;1.20;;;;;;;27.70;40.72;102239.16;5020872;28;20551;-75
2022/07/18 10:28:55;;;;;;;1.13;0.80;;;;;;;27.70;38.99;102243.75;5020838;28;20392;-79
2022/07/18 10:31:53;;;;;;;1.95;1.25;;;;;;;27.67;41.33;102249.50;5020803;28;20202;-77
2022/07/18 10:34:28;;;;;;;1.25;1.08;;;;;;;27.62;40.78;102239.91;4955391;28;20053;-77
2022/07/18 10:37:00;;;;;;;1.92;0.82;;;;;;;27.63;41.18;102232.63;4969184;28;20099;-76
2022/07/18 10:39:36;;;;;;;1.65;1.10;;;;;;;27.70;41.64;102232.88;5020511;28;20482;-77
2022/07/18 10:42:02;;;;;;;2.03;0.85;;;;;;;27.77;42.50;102232.13;5020702;28;20088;-77
2022/07/18 10:44:28;;;;;;;1.25;1.05;;;;;;;27.80;41.83;102233.69;5020570;28;20037;-78
2022/07/18 10:47:03;;;;;;;1.42;0.95;;;;;;;27.85;40.51;102234.09;5001262;28;20389;-76
2022/07/18 10:49:50;;;;;;;2.55;1.10;;;;;;;27.93;40.58;102233.31;5020322;28;20037;-76
2022/07/18 10:52:27;;;;;;;1.23;0.90;;;;;;;28.01;39.76;102221.69;5002700;28;20037;-75
2022/07/18 10:55:08;;;;;;;1.98;0.95;;;;;;;28.10;40.19;102228.94;5004137;28;20472;-76
2022/07/18 10:57:54;;;;;;;1.63;1.08;;;;;;;28.08;40.02;102233.66;5020922;28;20075;-76
2022/07/18 11:00:22;;;;;;;1.67;1.05;;;;;;;28.04;41.03;102224.97;4979477;28;20048;-76
2022/07/18 11:03:02;;;;;;;1.17;0.85;;;;;;;28.01;40.14;102229.84;5020416;28;20090;-76
2022/07/18 11:05:27;;;;;;;1.50;0.80;;;;;;;27.98;41.61;102225.56;5020337;28;21536;-76
2022/07/18 11:08:02;;;;;;;1.10;1.00;;;;;;;28.00;40.20;102233.59;5001943;28;20055;-75
2022/07/18 11:13:31;;;;;;;3.13;0.82;;;;;;;27.95;40.03;102225.88;5020132;28;20139;-77
2022/07/18 11:16:02;;;;;;;1.52;1.00;;;;;;;27.91;41.03;102224.47;5020539;28;20042;-76
2022/07/18 11:18:30;;;;;;;3.53;1.08;;;;;;;27.86;40.47;102216.75;4989001;28;20041;-76
2022/07/18 11:20:56;;;;;;;1.67;1.20;;;;;;;27.82;40.35;102211.78;5018400;28;20907;-76
2022/07/18 11:23:26;;;;;;;2.13;1.35;;;;;;;27.62;38.89;102214.59;5020343;28;20037;-76
2022/07/18 11:25:56;;;;;;;1.90;1.30;;;;;;;27.50;40.22;102212.03;5019760;28;20029;-77
2022/07/18 11:28:22;;;;;;;1.38;1.00;;;;;;;27.47;40.53;102211.47;5018929;28;20033;-77
2022/07/18 11:31:06;;;;;;;1.70;1.20;;;;;;;27.56;40.35;102210.56;5019925;28;20048;-77